Allen, Texas
Current Conditions -  °F | °C
As of 9:53 AM on Wednesday 22 Oct 2014 (Local Time) from KTKI Reporting Station
Clear Clear  
Wind Chill: 67°   Ceiling: Unl
Heat Index: 67°   Visibility: 7mi
Dew Point: 62°   Wind: 3mph
Humidity: 84%   Direction: 130°SE
Pressure: 30.17"   Gusts: NA
Location:  33.1°N, 96.67°W
Report Text: KTKI 221453Z 13003KT 7SM CLR 19/17 A3017 RMK AO2 SLP217 T01940167 51018
Loading
Personal Weather Stations






























Interactive Weather Map
Tropical Storm Tracking
New forecast layout! Learn more

10-Day Weather Forecast

Advertisements
Track Severe Weather on mobile